createdAt,value
2023-02-06T00:03:30.968Z,101287.34
2023-02-06T00:06:18.130Z,101295.97
2023-02-06T00:09:06.261Z,101303.75
2023-02-06T00:11:53.356Z,101275.78
2023-02-06T00:14:40.777Z,101306.44
2023-02-06T00:17:28.046Z,101269.72
2023-02-06T00:20:15.188Z,101275.88
2023-02-06T00:23:02.292Z,101321.22
2023-02-06T00:25:49.537Z,101308.06
2023-02-06T00:28:36.657Z,101290.56
2023-02-06T00:31:23.837Z,101305.50
2023-02-06T00:34:10.939Z,101286.19
2023-02-06T00:36:58.169Z,101315.81
2023-02-06T00:39:46.350Z,101295.75
2023-02-06T00:42:33.689Z,101332.47
2023-02-06T00:45:20.751Z,101350.69
2023-02-06T00:48:09.419Z,101322.00
2023-02-06T00:50:56.500Z,101342.03
2023-02-06T00:53:43.645Z,101336.69
2023-02-06T00:56:30.757Z,101350.69
2023-02-06T00:59:17.982Z,101342.81
2023-02-06T01:02:05.089Z,101334.78
2023-02-06T01:04:52.186Z,101342.63
2023-02-06T01:07:40.119Z,101310.25
2023-02-06T01:10:27.343Z,101318.13
2023-02-06T01:13:14.508Z,101318.16
2023-02-06T01:16:01.698Z,101351.31
2023-02-06T01:18:49.166Z,101357.44
2023-02-06T01:21:37.061Z,101314.69
2023-02-06T01:24:24.192Z,101344.31
2023-02-06T01:27:11.350Z,101290.88
2023-02-06T01:29:58.490Z,101342.59
2023-02-06T01:32:45.736Z,101339.13
2023-02-06T01:35:32.941Z,101306.78
2023-02-06T01:38:20.147Z,101315.56
2023-02-06T01:41:08.280Z,101288.50
2023-02-06T01:44:16.525Z,101332.94
2023-02-06T01:47:03.707Z,101333.81
2023-02-06T01:49:51.293Z,101317.88
2023-02-06T01:52:38.645Z,101319.59
2023-02-06T01:55:26.098Z,101344.19
2023-02-06T01:58:19.499Z,101351.06
2023-02-06T02:01:07.472Z,101351.00
2023-02-06T02:03:59.798Z,101308.97
2023-02-06T02:07:07.931Z,101340.56
2023-02-06T02:09:55.115Z,101290.72
2023-02-06T02:12:42.268Z,101320.41
2023-02-06T02:15:46.548Z,101340.41
2023-02-06T02:18:51.415Z,101329.16
2023-02-06T02:21:56.707Z,101335.25
2023-02-06T02:24:58.830Z,101323.91
2023-02-06T02:27:58.028Z,101329.16
2023-02-06T02:30:57.298Z,101320.38
2023-02-06T02:34:15.757Z,101326.47
2023-02-06T02:37:40.937Z,101281.88
2023-02-06T02:40:46.049Z,101309.97
2023-02-06T02:43:56.966Z,101310.81
2023-02-06T02:46:49.729Z,101307.28
2023-02-06T02:49:39.745Z,101316.81
2023-02-06T02:52:26.750Z,101331.66
2023-02-06T02:55:21.624Z,101321.88
2023-02-06T02:58:13.260Z,101306.09
2023-02-06T03:01:04.233Z,101318.44
2023-02-06T03:03:56.784Z,101302.66
2023-02-06T03:06:58.531Z,101300.91
2023-02-06T03:10:05.834Z,101303.53
2023-02-06T03:13:03.350Z,101278.22
2023-02-06T03:16:05.528Z,101305.28
2023-02-06T03:19:04.510Z,101299.31
2023-02-06T03:21:51.623Z,101309.09
2023-02-06T03:24:40.246Z,101280.06
2023-02-06T03:27:28.543Z,101302.00
2023-02-06T03:30:18.691Z,101321.94
2023-02-06T03:33:08.497Z,101316.66
2023-02-06T03:35:57.058Z,101301.69
2023-02-06T03:38:49.444Z,101319.13
2023-02-06T03:41:39.268Z,101305.97
2023-02-06T03:44:30.670Z,101305.78
2023-02-06T03:47:20.556Z,101300.56
2023-02-06T03:50:10.804Z,101330.50
2023-02-06T03:53:01.662Z,101325.97
2023-02-06T03:55:54.424Z,101337.19
2023-02-06T03:58:41.862Z,101347.75
2023-02-06T04:01:29.586Z,101311.16
2023-02-06T04:04:21.311Z,101316.28
2023-02-06T04:07:22.973Z,101331.84
2023-02-06T04:10:10.402Z,101316.94
2023-02-06T04:12:57.538Z,101319.69
2023-02-06T04:15:44.608Z,101310.84
2023-02-06T04:18:31.748Z,101332.63
2023-02-06T04:21:18.887Z,101298.56
2023-02-06T04:24:06.281Z,101323.97
2023-02-06T04:26:53.866Z,101312.47
2023-02-06T04:29:41.011Z,101317.72
2023-02-06T04:32:28.133Z,101293.25
2023-02-06T04:35:15.204Z,101302.94
2023-02-06T04:38:02.392Z,101295.91
2023-02-06T04:40:49.556Z,101290.63
2023-02-06T04:43:36.733Z,101289.69
2023-02-06T04:46:23.828Z,101314.94
2023-02-06T04:49:11.396Z,101310.66
2023-02-06T04:51:58.507Z,101302.09
2023-02-06T04:54:45.652Z,101290.75
2023-02-06T04:57:32.666Z,101284.59
2023-02-06T05:00:19.807Z,101280.19
2023-02-06T05:03:07.116Z,101290.69
2023-02-06T05:05:54.540Z,101286.38
2023-02-06T05:08:41.800Z,101288.13
2023-02-06T05:11:34.169Z,101274.31
2023-02-06T05:14:49.316Z,101282.31
2023-02-06T05:17:39.198Z,101262.31
2023-02-06T05:20:26.221Z,101277.97
2023-02-06T05:23:13.348Z,101251.81
2023-02-06T05:26:00.664Z,101260.66
2023-02-06T05:28:48.031Z,101279.81
2023-02-06T05:31:35.468Z,101284.13
2023-02-06T05:34:22.695Z,101264.25
2023-02-06T05:37:43.974Z,101285.13
2023-02-06T05:44:38.236Z,101289.31
2023-02-06T05:47:26.112Z,101306.63
2023-02-06T05:50:13.164Z,101281.16
2023-02-06T05:53:00.181Z,101277.72
2023-02-06T05:55:47.274Z,101297.13
2023-02-06T05:58:34.567Z,101285.00
2023-02-06T06:01:21.601Z,101284.22
2023-02-06T06:04:08.690Z,101286.91
2023-02-06T06:06:56.080Z,101279.13
2023-02-06T06:09:43.164Z,101280.09
2023-02-06T06:12:30.257Z,101269.63
2023-02-06T06:15:17.338Z,101288.91
2023-02-06T06:18:04.470Z,101268.06
2023-02-06T06:20:51.475Z,101274.38
2023-02-06T06:23:38.598Z,101271.75
2023-02-06T06:26:25.901Z,101254.28
2023-02-06T06:29:13.060Z,101275.22
2023-02-06T06:32:00.139Z,101277.84
2023-02-06T06:34:47.337Z,101277.06
2023-02-06T06:37:34.385Z,101280.50
2023-02-06T06:40:21.545Z,101273.56
2023-02-06T06:43:08.618Z,101272.75
2023-02-06T06:45:55.843Z,101271.03
2023-02-06T06:48:42.885Z,101271.91
2023-02-06T06:51:30.247Z,101263.25
2023-02-06T06:54:17.278Z,101275.53
2023-02-06T06:57:04.406Z,101261.63
2023-02-06T06:59:51.645Z,101264.28
2023-02-06T07:02:38.787Z,101272.22
2023-02-06T07:05:26.022Z,101226.88
2023-02-06T07:08:13.100Z,101267.97
2023-02-06T07:11:00.150Z,101269.75
2023-02-06T07:13:47.367Z,101282.09
2023-02-06T07:16:34.428Z,101233.19
2023-02-06T07:19:21.607Z,101273.44
2023-02-06T07:22:08.618Z,101274.38
2023-02-06T07:24:55.796Z,101272.69
2023-02-06T07:27:42.868Z,101281.44
2023-02-06T07:30:29.972Z,101270.13
2023-02-06T07:33:17.033Z,101256.19
2023-02-06T07:36:04.457Z,101264.06
2023-02-06T07:38:51.529Z,101276.28
2023-02-06T07:41:38.589Z,101284.25
2023-02-06T07:44:25.609Z,101264.25
2023-02-06T07:47:12.682Z,101240.75
2023-02-06T07:49:59.696Z,101237.28
2023-02-06T07:52:46.776Z,101247.72
2023-02-06T07:55:36.640Z,101249.50
2023-02-06T07:58:23.963Z,101241.66
2023-02-06T08:01:11.329Z,101255.59
2023-02-06T08:03:58.832Z,101246.00
2023-02-06T08:07:05.889Z,101241.63
2023-02-06T08:09:52.994Z,101240.75
2023-02-06T08:13:26.797Z,101249.41
2023-02-06T08:16:16.963Z,101242.41
2023-02-06T08:19:03.943Z,101251.06
2023-02-06T08:21:51.155Z,101230.09
2023-02-06T08:24:38.295Z,101217.78
2023-02-06T08:27:25.333Z,101254.44
2023-02-06T08:30:13.040Z,101250.94
2023-02-06T08:33:00.098Z,101242.16
2023-02-06T08:35:47.185Z,101247.41
2023-02-06T08:38:35.011Z,101252.66
2023-02-06T08:41:26.867Z,101255.25
2023-02-06T08:44:16.804Z,101253.31
2023-02-06T08:47:09.999Z,101243.59
2023-02-06T08:49:57.639Z,101237.63
2023-02-06T08:52:44.766Z,101237.59
2023-02-06T08:55:31.822Z,101254.13
2023-02-06T08:58:19.173Z,101255.78
2023-02-06T09:01:11.071Z,101243.47
2023-02-06T09:04:00.331Z,101258.16
2023-02-06T09:06:49.264Z,101265.94
2023-02-06T09:09:36.423Z,101240.38
2023-02-06T09:12:23.514Z,101244.94
2023-02-06T09:15:10.789Z,101239.66
2023-02-06T09:17:57.862Z,101251.56
2023-02-06T09:20:46.265Z,101264.50
2023-02-06T09:23:33.523Z,101256.63
2023-02-06T09:26:23.725Z,101252.13
2023-02-06T09:29:11.126Z,101256.47
2023-02-06T09:31:58.656Z,101251.78
2023-02-06T09:34:45.946Z,101238.66
2023-02-06T09:37:33.910Z,101239.41
2023-02-06T09:40:27.044Z,101221.19
2023-02-06T09:43:14.308Z,101259.41
2023-02-06T09:46:04.812Z,101262.06
2023-02-06T09:48:51.911Z,101250.59
2023-02-06T09:52:16.089Z,101247.50
2023-02-06T09:55:27.658Z,101249.19
2023-02-06T09:58:23.912Z,101238.31
2023-02-06T10:01:42.088Z,101239.41
2023-02-06T10:04:40.540Z,101207.84
2023-02-06T10:07:47.879Z,101214.69
2023-02-06T10:10:49.805Z,101210.59
2023-02-06T10:13:53.314Z,101205.03
2023-02-06T10:16:53.174Z,101151.75
2023-02-06T10:19:49.619Z,101199.34
2023-02-06T10:22:48.366Z,101195.78
2023-02-06T10:25:39.045Z,101189.06
2023-02-06T10:28:29.484Z,101186.44
2023-02-06T10:31:19.495Z,101180.84
2023-02-06T10:34:15.309Z,101180.28
2023-02-06T10:37:09.436Z,101171.78
2023-02-06T10:40:27.626Z,101155.91
2023-02-06T10:43:20.579Z,101165.81
2023-02-06T10:46:29.243Z,101144.72
2023-02-06T10:49:32.256Z,101146.28
2023-02-06T10:52:29.110Z,101148.19
2023-02-06T10:55:29.587Z,101156.22
2023-02-06T10:58:25.675Z,101139.72
2023-02-06T11:01:25.743Z,101145.03
2023-02-06T11:04:29.617Z,101138.19
2023-02-06T11:07:25.192Z,101112.91
2023-02-06T11:10:15.230Z,101125.38
2023-02-06T11:13:15.374Z,101121.88
2023-02-06T11:16:12.980Z,101115.78
2023-02-06T11:19:09.180Z,101109.81
2023-02-06T11:22:10.099Z,101052.78
2023-02-06T11:25:31.557Z,101089.44
2023-02-06T11:28:23.389Z,101065.88
2023-02-06T11:31:10.780Z,101100.59
2023-02-06T11:33:58.292Z,101078.13
2023-02-06T11:36:45.409Z,101085.25
2023-02-06T11:39:35.806Z,101087.88
2023-02-06T11:42:28.552Z,101099.28
2023-02-06T11:45:31.519Z,101043.53
2023-02-06T11:48:36.726Z,101079.91
2023-02-06T11:51:24.753Z,101045.22
2023-02-06T11:54:29.613Z,101052.66
2023-02-06T11:57:22.153Z,101085.38
2023-02-06T12:00:27.580Z,101076.25
2023-02-06T12:03:32.756Z,101083.38
2023-02-06T12:06:35.595Z,101076.09
2023-02-06T12:09:22.684Z,101039.84
2023-02-06T12:12:25.458Z,101062.41
2023-02-06T12:15:44.873Z,101069.47
2023-02-06T12:18:42.448Z,101061.28
2023-02-06T12:21:40.527Z,101059.19
2023-02-06T12:24:41.223Z,100991.41
2023-02-06T12:27:37.222Z,101033.16
2023-02-06T12:31:09.406Z,101044.28
2023-02-06T12:34:23.877Z,101046.81
2023-02-06T12:37:37.891Z,101042.50
2023-02-06T12:40:46.491Z,101027.81
2023-02-06T12:43:36.855Z,101026.75
2023-02-06T12:46:27.778Z,100975.47
2023-02-06T12:49:26.850Z,100962.38
2023-02-06T12:52:19.803Z,101015.81
2023-02-06T12:55:21.896Z,101010.84
2023-02-06T12:58:28.671Z,100938.00
2023-02-06T13:01:35.862Z,101015.56
2023-02-06T13:04:26.430Z,101014.59
2023-02-06T13:07:16.523Z,100973.97
2023-02-06T13:10:07.184Z,100959.03
2023-02-06T13:12:59.865Z,100991.56
2023-02-06T13:15:55.102Z,100936.84
2023-02-06T13:18:42.298Z,101002.97
2023-02-06T13:21:32.648Z,100948.53
2023-02-06T13:24:21.375Z,100979.19
2023-02-06T13:27:08.372Z,101001.88
2023-02-06T13:29:55.441Z,100974.88
2023-02-06T13:32:46.247Z,100994.47
2023-02-06T13:35:33.353Z,100984.91
2023-02-06T13:38:23.663Z,100995.03
2023-02-06T13:41:16.525Z,100999.97
2023-02-06T13:44:11.716Z,100999.91
2023-02-06T13:47:17.022Z,100989.00
2023-02-06T13:50:57.741Z,100967.38
2023-02-06T13:54:20.059Z,100972.47
2023-02-06T13:57:34.272Z,100988.47
2023-02-06T14:00:24.172Z,100986.53
2023-02-06T14:03:23.868Z,100920.09
2023-02-06T14:06:10.953Z,100990.16
2023-02-06T14:09:16.401Z,100984.97
2023-02-06T14:12:39.540Z,100970.16
2023-02-06T14:15:49.565Z,100977.66
2023-02-06T14:18:52.769Z,100966.94
2023-02-06T14:21:54.251Z,100960.13
2023-02-06T14:24:54.070Z,100976.97
2023-02-06T14:27:58.695Z,100904.94
2023-02-06T14:30:48.601Z,100978.44
2023-02-06T14:33:35.578Z,100972.34
2023-02-06T14:36:31.646Z,100978.22
2023-02-06T14:39:36.284Z,100973.78
2023-02-06T14:42:45.208Z,100922.41
2023-02-06T14:45:41.701Z,100978.34
2023-02-06T14:48:38.943Z,100968.44
2023-02-06T14:51:34.261Z,100978.56
2023-02-06T14:54:41.851Z,100963.31
2023-02-06T14:57:32.027Z,100978.19
2023-02-06T15:00:21.037Z,100973.34
2023-02-06T15:03:15.855Z,100959.22
2023-02-06T15:06:10.372Z,100982.00
2023-02-06T15:08:57.734Z,100972.47
2023-02-06T15:11:51.231Z,100972.63
2023-02-06T15:14:38.628Z,100984.38
2023-02-06T15:17:28.839Z,100962.88
2023-02-06T15:20:23.765Z,100985.63
2023-02-06T15:23:38.734Z,100987.78
2023-02-06T15:27:19.867Z,100968.47
2023-02-06T15:30:19.330Z,100991.44
2023-02-06T15:33:10.869Z,100969.25
2023-02-06T15:36:00.367Z,100990.59
2023-02-06T15:38:48.010Z,100974.22
2023-02-06T15:41:35.896Z,100969.56
2023-02-06T15:44:22.936Z,100999.41
2023-02-06T15:47:14.085Z,100947.16
2023-02-06T15:50:01.284Z,100993.94
2023-02-06T15:52:48.836Z,101014.09
2023-02-06T15:55:36.873Z,100943.25
2023-02-06T15:58:25.602Z,101017.59
2023-02-06T16:01:19.310Z,101003.94
2023-02-06T16:04:13.090Z,101009.44
2023-02-06T16:07:12.363Z,101020.41
2023-02-06T16:10:04.043Z,101027.06
2023-02-06T16:12:52.603Z,101033.50
2023-02-06T16:15:40.961Z,101040.81
2023-02-06T16:18:34.030Z,101031.75
2023-02-06T16:21:25.367Z,101054.63
2023-02-06T16:24:17.831Z,101061.72
2023-02-06T16:27:26.413Z,101055.78
2023-02-06T16:30:20.886Z,101069.75
2023-02-06T16:33:44.856Z,101067.41
2023-02-06T16:36:33.661Z,101072.00
2023-02-06T16:39:23.334Z,101081.09
2023-02-06T16:42:18.837Z,101063.91
2023-02-06T16:45:18.156Z,101097.19
2023-02-06T16:48:11.924Z,101110.34
2023-02-06T16:50:59.561Z,101106.84
2023-02-06T16:53:50.369Z,101095.66
2023-02-06T16:56:38.891Z,101114.13
2023-02-06T16:59:26.089Z,101116.91
2023-02-06T17:02:14.332Z,101140.72
2023-02-06T17:05:01.759Z,101133.91
2023-02-06T17:07:50.839Z,101132.28
2023-02-06T17:10:38.267Z,101146.22
2023-02-06T17:13:25.702Z,101137.50
2023-02-06T17:16:19.425Z,101134.13
2023-02-06T17:19:06.613Z,101153.41
2023-02-06T17:21:53.828Z,101153.47
2023-02-06T17:24:41.754Z,101154.44
2023-02-06T17:27:28.767Z,101151.03
2023-02-06T17:30:21.004Z,101159.84
2023-02-06T17:33:08.908Z,101153.81
2023-02-06T17:35:56.248Z,101165.16
2023-02-06T17:38:44.493Z,101153.00
2023-02-06T17:41:32.277Z,101151.28
2023-02-06T17:44:20.700Z,101155.63
2023-02-06T17:47:08.642Z,101147.78
2023-02-06T17:49:57.296Z,101164.47
2023-02-06T17:52:44.924Z,101167.97
2023-02-06T17:55:32.370Z,101173.25
2023-02-06T17:58:19.571Z,101170.66
2023-02-06T18:01:14.957Z,101193.41
2023-02-06T18:04:03.975Z,101182.09
2023-02-06T18:06:51.034Z,101184.75
2023-02-06T18:09:41.750Z,101186.50
2023-02-06T18:12:29.380Z,101174.25
2023-02-06T18:15:17.034Z,101182.09
2023-02-06T18:18:05.083Z,101173.41
2023-02-06T18:20:53.181Z,101172.59
2023-02-06T18:23:40.890Z,101184.00
2023-02-06T18:26:37.434Z,101193.59
2023-02-06T18:29:47.328Z,101193.59
2023-02-06T18:32:39.455Z,101211.94
2023-02-06T18:35:28.114Z,101217.19
2023-02-06T18:38:17.885Z,101201.47
2023-02-06T18:41:08.531Z,101225.91
2023-02-06T18:44:08.885Z,101223.28
2023-02-06T18:46:56.478Z,101217.19
2023-02-06T18:49:52.149Z,101211.09
2023-02-06T18:52:40.011Z,101210.22
2023-02-06T18:55:28.880Z,101223.31
2023-02-06T18:58:19.869Z,101220.72
2023-02-06T19:01:21.665Z,101228.56
2023-02-06T19:04:09.557Z,101228.56
2023-02-06T19:07:00.987Z,101229.41
2023-02-06T19:09:48.992Z,101246.88
2023-02-06T19:12:39.333Z,101237.28
2023-02-06T19:15:27.511Z,101239.00
2023-02-06T19:18:19.791Z,101240.75
2023-02-06T19:21:20.342Z,101246.84
2023-02-06T19:24:19.145Z,101231.13
2023-02-06T19:27:13.799Z,101239.00
2023-02-06T19:30:03.887Z,101223.25
2023-02-06T19:32:52.637Z,101243.34
2023-02-06T19:35:41.818Z,101249.47
2023-02-06T19:38:29.285Z,101259.03
2023-02-06T19:41:22.143Z,101261.63
2023-02-06T19:44:15.251Z,101252.94
2023-02-06T19:47:04.629Z,101242.44
2023-02-06T19:49:54.538Z,101252.91
2023-02-06T19:52:49.938Z,101263.38
2023-02-06T19:55:48.799Z,101251.97
2023-02-06T19:58:38.925Z,101269.41
2023-02-06T20:01:48.149Z,101282.50
2023-02-06T20:04:37.000Z,101275.53
2023-02-06T20:07:25.750Z,101260.66
2023-02-06T20:10:13.620Z,101267.63
2023-02-06T20:13:00.913Z,101291.19
2023-02-06T20:15:48.894Z,101270.25
2023-02-06T20:18:37.547Z,101282.44
2023-02-06T20:21:29.246Z,101274.59
2023-02-06T20:24:24.041Z,101285.94
2023-02-06T20:27:13.655Z,101274.56
2023-02-06T20:30:02.653Z,101282.41
2023-02-06T20:32:50.652Z,101278.00
2023-02-06T20:35:45.631Z,101277.13
2023-02-06T20:38:33.504Z,101284.97
2023-02-06T20:41:23.251Z,101291.97
2023-02-06T20:44:14.197Z,101268.41
2023-02-06T20:47:01.698Z,101259.66
2023-02-06T20:49:49.452Z,101232.59
2023-02-06T20:52:37.222Z,101255.28
2023-02-06T20:55:24.940Z,101236.13
2023-02-06T20:58:14.238Z,101250.03
2023-02-06T21:01:03.199Z,101268.34
2023-02-06T21:03:52.225Z,101270.09
2023-02-06T21:06:40.862Z,101264.81
2023-02-06T21:09:28.385Z,101273.53
2023-02-06T21:12:17.824Z,101258.69
2023-02-06T21:15:05.179Z,101278.69
2023-02-06T21:17:52.465Z,101287.41
2023-02-06T21:20:39.505Z,101258.59
2023-02-06T21:23:27.178Z,101289.13
2023-02-06T21:26:17.418Z,101284.78
2023-02-06T21:29:06.471Z,101305.72
2023-02-06T21:32:07.203Z,101290.00
2023-02-06T21:34:59.548Z,101285.66
2023-02-06T21:37:47.659Z,101279.50
2023-02-06T21:40:34.789Z,101262.94
2023-02-06T21:43:21.864Z,101276.91
2023-02-06T21:46:10.263Z,101274.19
2023-02-06T21:48:57.479Z,101288.09
2023-02-06T21:51:44.582Z,101288.88
2023-02-06T21:54:31.867Z,101291.50
2023-02-06T21:57:19.280Z,101295.84
2023-02-06T22:00:06.995Z,101305.47
2023-02-06T22:02:54.379Z,101311.63
2023-02-06T22:05:41.728Z,101306.44
2023-02-06T22:08:28.829Z,101315.19
2023-02-06T22:11:19.320Z,101328.16
2023-02-06T22:14:15.837Z,101328.09
2023-02-06T22:17:02.840Z,101325.44
2023-02-06T22:19:50.357Z,101316.66
2023-02-06T22:22:38.835Z,101332.41
2023-02-06T22:25:28.405Z,101338.53
2023-02-06T22:28:15.630Z,101345.44
2023-02-06T22:31:12.530Z,101350.63
2023-02-06T22:34:00.598Z,101359.34
2023-02-06T22:36:49.149Z,101364.75
2023-02-06T22:39:36.203Z,101336.00
2023-02-06T22:42:23.698Z,101376.34
2023-02-06T22:45:10.705Z,101365.94
2023-02-06T22:47:57.759Z,101351.16
2023-02-06T22:50:44.745Z,101383.59
2023-02-06T22:53:32.047Z,101379.25
2023-02-06T22:56:27.765Z,101390.66
2023-02-06T22:59:19.912Z,101380.19
2023-02-06T23:02:06.959Z,101360.09
2023-02-06T23:04:56.170Z,101346.97
2023-02-06T23:07:43.282Z,101369.72
2023-02-06T23:10:30.319Z,101381.13
2023-02-06T23:13:17.356Z,101388.09
2023-02-06T23:16:09.975Z,101407.34
2023-02-06T23:18:57.072Z,101405.56
2023-02-06T23:21:47.647Z,101409.09
2023-02-06T23:24:34.698Z,101390.75
2023-02-06T23:27:21.786Z,101394.25
2023-02-06T23:30:09.564Z,101402.97
2023-02-06T23:32:56.646Z,101411.72
2023-02-06T23:35:43.951Z,101411.69
2023-02-06T23:38:31.134Z,101420.47
2023-02-06T23:41:25.976Z,101417.81
2023-02-06T23:44:13.225Z,101426.56
2023-02-06T23:47:00.377Z,101383.72
2023-02-06T23:49:47.477Z,101424.75
2023-02-06T23:52:34.488Z,101430.88
2023-02-06T23:55:21.618Z,101434.31
2023-02-06T23:58:08.664Z,101443.03
